Time;durP1;ratioP1;P1;durP2;ratioP2;P2;SDS_P1;SDS_P2;PMS_P1;PMS_P2;Temp;Humidity;BMP_temperature;BMP_pressure;BME280_temperature;BME280_humidity;BME280_pressure;Samples;Min_cycle;Max_cycle;Signal;HPM_P1;HPM_P2
2023/05/02 00:02:03;;;;;;;4.82;2.17;;;;;;;;;;5004292;28;20036;-75
2023/05/02 00:04:29;;;;;;;4.38;2.50;;;;;;;;;;5007153;28;20549;-74
2023/05/02 00:06:55;;;;;;;2.92;2.40;;;;;;;;;;4997250;28;20501;-75
2023/05/02 00:09:22;;;;;;;4.50;2.83;;;;;;;;;;5006056;28;20023;-75
2023/05/02 00:11:48;;;;;;;5.18;3.22;;;;;;;;;;5003899;28;20140;-75
2023/05/02 00:14:14;;;;;;;8.20;3.38;;;;;;;;;;5009085;28;20050;-74
2023/05/02 00:16:40;;;;;;;3.95;2.97;;;;;;;;;;5007344;28;20034;-75
2023/05/02 00:19:06;;;;;;;4.20;3.00;;;;;;;;;;5001535;28;20026;-75
2023/05/02 00:21:33;;;;;;;4.38;2.80;;;;;;;;;;5005165;28;20084;-76
2023/05/02 00:23:59;;;;;;;4.95;3.00;;;;;;;;;;5010218;28;20130;-75
2023/05/02 00:26:26;;;;;;;5.07;3.47;;;;;;;;;;5008890;28;20014;-74
2023/05/02 00:28:52;;;;;;;4.72;3.13;;;;;;;;;;5005525;28;20037;-75
2023/05/02 00:31:18;;;;;;;6.15;3.38;;;;;;;;;;5004920;28;20117;-74
2023/05/02 00:33:44;;;;;;;3.97;3.00;;;;;;;;;;5004505;28;20128;-74
2023/05/02 00:36:14;;;;;;;5.45;3.40;;;;;;;;;;5007492;28;20108;-75
2023/05/02 00:38:40;;;;;;;6.47;2.80;;;;;;;;;;5010223;28;20033;-74
2023/05/02 00:41:07;;;;;;;7.05;3.00;;;;;;;;;;5001310;28;20026;-75
2023/05/02 00:43:33;;;;;;;7.72;2.88;;;;;;;;;;5004686;28;20018;-75
2023/05/02 00:45:59;;;;;;;4.82;3.47;;;;;;;;;;5004766;28;20018;-75
2023/05/02 00:48:25;;;;;;;8.27;3.70;;;;;;;;;;5010246;28;20026;-76
2023/05/02 00:50:52;;;;;;;6.00;3.88;;;;;;;;;;5002321;28;20034;-75
2023/05/02 00:53:18;;;;;;;5.68;3.75;;;;;;;;;;5010804;28;20169;-76
2023/05/02 00:55:44;;;;;;;7.68;3.70;;;;;;;;;;5007739;28;20030;-76
2023/05/02 00:58:11;;;;;;;4.40;2.83;;;;;;;;;;5002763;28;20100;-74
2023/05/02 01:00:47;;;;;;;5.10;3.50;;;;;;;;;;4997890;28;20042;-75
2023/05/02 01:03:39;;;;;;;7.25;3.58;;;;;;;;;;5001249;28;20025;-75
2023/05/02 01:06:11;;;;;;;8.85;3.65;;;;;;;;;;4996590;28;20133;-75
2023/05/02 01:08:37;;;;;;;;;;;;;;;;;;5010347;28;20045;-76
2023/05/02 01:11:11;;;;;;;6.18;4.30;;;;;;;;;;5002932;28;20453;-75
2023/05/02 01:13:38;;;;;;;5.32;3.67;;;;;;;;;;5004087;28;20097;-74
2023/05/02 01:16:05;;;;;;;5.00;3.30;;;;;;;;;;4984689;28;20030;-75
2023/05/02 01:18:33;;;;;;;3.67;3.00;;;;;;;;;;5009463;28;20018;-76
2023/05/02 01:21:17;;;;;;;4.22;3.10;;;;;;;;;;5002678;28;20032;-75
2023/05/02 01:23:50;;;;;;;4.85;2.95;;;;;;;;;;5005317;28;20038;-75
2023/05/02 01:26:20;;;;;;;8.50;3.83;;;;;;;;;;5006467;28;20097;-75
2023/05/02 01:28:52;;;;;;;5.75;4.05;;;;;;;;;;5008840;28;20017;-74
2023/05/02 01:31:18;;;;;;;3.97;3.60;;;;;;;;;;5005894;28;20112;-75
2023/05/02 01:33:45;;;;;;;8.73;3.70;;;;;;;;;;5009538;28;20053;-74
2023/05/02 01:36:12;;;;;;;5.20;3.28;;;;;;;;;;5001674;28;20024;-75
2023/05/02 01:38:39;;;;;;;5.47;3.03;;;;;;;;;;5008025;28;20533;-75
2023/05/02 01:41:06;;;;;;;4.97;3.67;;;;;;;;;;4999543;28;20145;-75
2023/05/02 01:43:37;;;;;;;5.95;3.40;;;;;;;;;;5006941;28;20418;-75
2023/05/02 01:46:04;;;;;;;5.97;3.88;;;;;;;;;;5007207;28;20033;-75
2023/05/02 01:48:31;;;;;;;5.00;3.33;;;;;;;;;;5009672;28;20022;-75
2023/05/02 01:50:57;;;;;;;7.15;3.97;;;;;;;;;;5006082;28;20109;-75
2023/05/02 01:53:25;;;;;;;4.50;3.20;;;;;;;;;;5008123;28;20061;-75
2023/05/02 01:55:52;;;;;;;5.78;3.03;;;;;;;;;;5007768;28;20026;-76
2023/05/02 01:58:20;;;;;;;4.18;2.85;;;;;;;;;;5006165;28;20076;-75
2023/05/02 02:00:46;;;;;;;4.05;2.70;;;;;;;;;;5000045;28;21741;-75
2023/05/02 02:03:13;;;;;;;5.13;3.03;;;;;;;;;;5008414;28;20133;-74
2023/05/02 02:05:40;;;;;;;5.63;3.10;;;;;;;;;;5004100;28;20092;-75
2023/05/02 02:08:07;;;;;;;4.35;3.10;;;;;;;;;;5009195;28;20044;-75
2023/05/02 02:10:36;;;;;;;3.50;2.80;;;;;;;;;;5000152;28;20179;-76
2023/05/02 02:13:06;;;;;;;7.60;2.95;;;;;;;;;;5007941;28;20160;-75
2023/05/02 02:15:35;;;;;;;4.28;3.03;;;;;;;;;;5006162;28;20490;-75
2023/05/02 02:18:13;;;;;;;6.75;3.15;;;;;;;;;;5007969;28;20212;-76
2023/05/02 02:20:42;;;;;;;5.70;2.78;;;;;;;;;;5004754;28;20113;-76
2023/05/02 02:23:09;;;;;;;3.95;2.72;;;;;;;;;;5005608;28;20525;-76
2023/05/02 02:25:35;;;;;;;4.53;3.03;;;;;;;;;;5007303;28;20026;-76
2023/05/02 02:28:01;;;;;;;4.50;2.72;;;;;;;;;;5004852;28;20105;-76
2023/05/02 02:30:28;;;;;;;3.80;2.55;;;;;;;;;;4998328;28;20410;-76
2023/05/02 02:32:54;;;;;;;4.25;2.50;;;;;;;;;;4999967;28;20463;-75
2023/05/02 02:35:20;;;;;;;5.82;2.63;;;;;;;;;;4997975;28;20018;-75
2023/05/02 02:37:48;;;;;;;3.58;2.58;;;;;;;;;;5007102;28;20022;-75
2023/05/02 02:40:20;;;;;;;4.90;2.75;;;;;;;;;;4998342;28;20113;-74
2023/05/02 02:42:50;;;;;;;3.70;2.40;;;;;;;;;;5005868;28;20500;-75
2023/05/02 02:45:22;;;;;;;4.90;2.38;;;;;;;;;;5001482;28;20053;-76
2023/05/02 02:47:50;;;;;;;4.07;2.40;;;;;;;;;;5008981;28;20555;-75
2023/05/02 02:50:20;;;;;;;3.80;2.20;;;;;;;;;;4995484;28;20042;-75
2023/05/02 02:52:49;;;;;;;3.92;2.60;;;;;;;;;;5005536;28;20097;-76
2023/05/02 02:55:38;;;;;;;4.88;2.45;;;;;;;;;;5005179;28;20032;-75
2023/05/02 02:58:07;;;;;;;4.28;2.53;;;;;;;;;;4996545;28;20113;-75
2023/05/02 03:00:34;;;;;;;2.92;2.40;;;;;;;;;;5006899;28;20502;-75
2023/05/02 03:03:01;;;;;;;2.75;2.25;;;;;;;;;;5010633;28;20192;-74
2023/05/02 03:05:27;;;;;;;2.92;2.40;;;;;;;;;;5002657;28;20032;-74
2023/05/02 03:07:54;;;;;;;3.92;2.35;;;;;;;;;;5010298;28;20104;-75
2023/05/02 03:10:22;;;;;;;2.83;2.30;;;;;;;;;;5009194;28;20029;-76
2023/05/02 03:12:48;;;;;;;6.60;2.50;;;;;;;;;;4999142;28;20083;-76
2023/05/02 03:15:54;;;;;;;2.80;2.22;;;;;;;;;;5005425;28;20470;-76
2023/05/02 03:18:20;;;;;;;5.95;2.45;;;;;;;;;;4925946;29;20028;-75
2023/05/02 03:20:46;;;;;;;6.10;2.28;;;;;;;;;;4905673;29;20143;-74
2023/05/02 03:23:12;;;;;;;5.63;2.47;;;;;;;;;;4961189;28;20030;-74
2023/05/02 03:25:38;;;;;;;3.55;2.22;;;;;;;;;;4983717;28;20121;-74
2023/05/02 03:28:05;;;;;;;3.20;2.38;;;;;;;;;;5009488;28;20072;-74
2023/05/02 03:30:31;;;;;;;4.38;2.40;;;;;;;;;;5000413;28;20175;-74
2023/05/02 03:32:57;;;;;;;3.05;2.30;;;;;;;;;;5008409;28;20080;-75
2023/05/02 03:35:23;;;;;;;4.07;2.35;;;;;;;;;;4999847;28;20046;-74
2023/05/02 03:37:49;;;;;;;6.05;2.45;;;;;;;;;;5007645;28;20051;-75
2023/05/02 03:40:20;;;;;;;5.85;2.83;;;;;;;;;;5007804;28;20053;-76
2023/05/02 03:42:46;;;;;;;3.17;2.40;;;;;;;;;;5006813;28;20109;-74
2023/05/02 03:45:12;;;;;;;3.30;2.60;;;;;;;;;;5003842;28;20284;-74
2023/05/02 03:47:39;;;;;;;3.97;2.28;;;;;;;;;;5009985;28;20045;-76
2023/05/02 03:50:05;;;;;;;4.25;2.80;;;;;;;;;;5002717;28;20026;-75
2023/05/02 03:52:33;;;;;;;3.90;2.40;;;;;;;;;;5009151;28;20041;-76
2023/05/02 03:55:00;;;;;;;5.05;2.72;;;;;;;;;;5001905;28;20021;-74
2023/05/02 03:57:29;;;;;;;4.90;2.53;;;;;;;;;;5009121;28;20790;-75
2023/05/02 03:59:56;;;;;;;4.07;2.63;;;;;;;;;;4999153;28;20089;-75
2023/05/02 04:02:22;;;;;;;8.60;3.40;;;;;;;;;;5000441;28;20034;-75
2023/05/02 04:04:49;;;;;;;5.03;2.75;;;;;;;;;;5000374;28;20026;-74
2023/05/02 04:07:18;;;;;;;12.07;3.33;;;;;;;;;;5001844;28;20022;-76
2023/05/02 04:09:44;;;;;;;5.80;3.30;;;;;;;;;;5001776;28;20041;-75
2023/05/02 04:12:11;;;;;;;4.28;3.33;;;;;;;;;;4998482;28;20034;-75
2023/05/02 04:14:37;;;;;;;9.30;3.10;;;;;;;;;;5002517;28;20113;-74
2023/05/02 04:17:03;;;;;;;6.18;3.90;;;;;;;;;;5004449;28;20029;-75
2023/05/02 04:19:30;;;;;;;6.75;3.10;;;;;;;;;;5002046;28;20494;-74
2023/05/02 04:21:56;;;;;;;5.32;3.90;;;;;;;;;;5002228;28;20022;-75
2023/05/02 04:24:22;;;;;;;5.15;3.42;;;;;;;;;;5001599;28;20643;-75
2023/05/02 04:26:48;;;;;;;5.78;3.25;;;;;;;;;;5000386;28;20791;-75
2023/05/02 04:29:14;;;;;;;11.45;3.65;;;;;;;;;;4996855;28;20114;-75
2023/05/02 04:31:41;;;;;;;11.15;3.53;;;;;;;;;;5001510;28;20084;-75
2023/05/02 04:34:07;;;;;;;4.90;3.47;;;;;;;;;;5004479;28;20382;-75
2023/05/02 04:36:33;;;;;;;10.52;4.05;;;;;;;;;;4999172;28;20029;-75
2023/05/02 04:38:59;;;;;;;9.90;4.22;;;;;;;;;;5000116;28;20038;-75
2023/05/02 04:41:26;;;;;;;5.22;3.80;;;;;;;;;;4999552;28;20022;-75
2023/05/02 04:43:52;;;;;;;9.45;4.22;;;;;;;;;;5004140;28;20499;-75
2023/05/02 04:46:18;;;;;;;7.78;3.92;;;;;;;;;;4994773;28;20110;-75
2023/05/02 04:48:44;;;;;;;6.05;3.90;;;;;;;;;;5000752;28;20101;-75
2023/05/02 04:51:10;;;;;;;7.32;3.58;;;;;;;;;;4997517;28;20038;-75
2023/05/02 04:53:37;;;;;;;6.72;3.75;;;;;;;;;;5004653;28;20041;-75
2023/05/02 04:56:03;;;;;;;9.40;4.03;;;;;;;;;;4994573;28;20029;-76
2023/05/02 04:58:30;;;;;;;6.57;3.90;;;;;;;;;;4996392;28;20798;-74
2023/05/02 05:00:56;;;;;;;8.30;3.70;;;;;;;;;;4996004;28;20046;-76
2023/05/02 05:03:22;;;;;;;6.50;3.30;;;;;;;;;;4992729;28;20271;-74
2023/05/02 05:05:48;;;;;;;5.22;3.33;;;;;;;;;;4996111;28;20060;-75
2023/05/02 05:08:14;;;;;;;6.40;3.50;;;;;;;;;;5002484;28;20185;-75
2023/05/02 05:10:41;;;;;;;8.80;3.78;;;;;;;;;;5001822;28;20383;-74
2023/05/02 05:13:07;;;;;;;7.30;3.28;;;;;;;;;;4998262;28;20026;-75
2023/05/02 05:15:33;;;;;;;4.57;3.15;;;;;;;;;;4995871;28;20025;-75
2023/05/02 05:17:59;;;;;;;6.50;3.40;;;;;;;;;;4999496;28;20378;-75
2023/05/02 05:20:25;;;;;;;7.57;3.33;;;;;;;;;;4997117;28;20021;-76
2023/05/02 05:22:52;;;;;;;8.68;3.72;;;;;;;;;;5003520;28;20067;-75
2023/05/02 05:25:18;;;;;;;6.03;3.15;;;;;;;;;;4997601;28;20101;-76
2023/05/02 05:27:44;;;;;;;6.30;3.22;;;;;;;;;;4997806;28;20117;-74
2023/05/02 05:30:10;;;;;;;6.80;3.50;;;;;;;;;;4995028;28;20069;-76
2023/05/02 05:32:37;;;;;;;9.05;3.40;;;;;;;;;;5001809;28;20512;-74
2023/05/02 05:35:03;;;;;;;6.38;3.95;;;;;;;;;;4997551;28;20034;-75
2023/05/02 05:37:29;;;;;;;6.32;3.55;;;;;;;;;;5001873;28;20026;-75
2023/05/02 05:39:55;;;;;;;8.80;4.30;;;;;;;;;;4998738;28;20117;-76
2023/05/02 05:42:22;;;;;;;6.60;3.72;;;;;;;;;;5000820;28;20156;-75
2023/05/02 05:44:48;;;;;;;7.20;3.55;;;;;;;;;;4998688;28;20022;-75
2023/05/02 05:47:18;;;;;;;8.25;3.35;;;;;;;;;;5000409;28;20026;-76
2023/05/02 05:49:45;;;;;;;5.97;3.65;;;;;;;;;;4998212;28;20022;-75
2023/05/02 05:52:11;;;;;;;6.82;3.65;;;;;;;;;;4994868;28;20108;-75
2023/05/02 05:54:37;;;;;;;6.43;3.25;;;;;;;;;;4997853;28;20106;-76
2023/05/02 05:57:03;;;;;;;4.45;2.50;;;;;;;;;;4990225;28;20804;-75
2023/05/02 05:59:29;;;;;;;4.80;3.20;;;;;;;;;;4998625;28;20505;-75
2023/05/02 06:01:56;;;;;;;4.38;3.17;;;;;;;;;;5001242;28;20149;-75
2023/05/02 06:04:22;;;;;;;4.05;2.97;;;;;;;;;;5001149;28;20046;-74
2023/05/02 06:06:50;;;;;;;5.43;3.38;;;;;;;;;;5000862;28;20018;-74
2023/05/02 06:09:16;;;;;;;12.98;4.13;;;;;;;;;;4999743;28;20029;-75
2023/05/02 06:11:42;;;;;;;6.40;3.92;;;;;;;;;;4995953;28;20734;-74
2023/05/02 06:14:08;;;;;;;6.07;3.88;;;;;;;;;;4999763;28;20025;-75
2023/05/02 06:16:34;;;;;;;8.40;4.22;;;;;;;;;;4988819;28;20133;-74
2023/05/02 06:19:01;;;;;;;9.02;4.97;;;;;;;;;;5002178;28;20117;-74
2023/05/02 06:21:27;;;;;;;7.25;3.72;;;;;;;;;;4997236;28;20108;-76
2023/05/02 06:23:53;;;;;;;10.02;4.30;;;;;;;;;;5000481;28;20033;-76
2023/05/02 06:26:20;;;;;;;10.27;4.68;;;;;;;;;;4990503;28;20181;-75
2023/05/02 06:28:46;;;;;;;10.98;4.43;;;;;;;;;;5000014;28;20180;-75
2023/05/02 06:31:12;;;;;;;9.85;4.20;;;;;;;;;;4992052;28;20042;-75
2023/05/02 06:33:39;;;;;;;10.57;4.22;;;;;;;;;;4998281;28;20891;-74
2023/05/02 06:36:05;;;;;;;4.75;3.70;;;;;;;;;;5003545;28;20033;-74
2023/05/02 06:38:31;;;;;;;8.70;4.35;;;;;;;;;;4986171;28;20477;-74
2023/05/02 06:40:58;;;;;;;12.70;4.10;;;;;;;;;;4994664;28;20030;-76
2023/05/02 06:43:24;;;;;;;6.30;3.83;;;;;;;;;;4996556;28;20363;-75
2023/05/02 06:45:53;;;;;;;9.65;3.85;;;;;;;;;;4995585;28;20124;-75
2023/05/02 06:48:20;;;;;;;8.52;3.60;;;;;;;;;;5004015;28;20620;-76
2023/05/02 06:50:46;;;;;;;7.43;3.45;;;;;;;;;;4997841;28;20606;-75
2023/05/02 06:53:13;;;;;;;5.50;2.85;;;;;;;;;;4995336;28;20132;-75
2023/05/02 06:55:39;;;;;;;6.97;3.58;;;;;;;;;;4997876;28;20018;-75
2023/05/02 06:58:05;;;;;;;9.70;3.15;;;;;;;;;;5003503;28;20022;-75
2023/05/02 07:00:31;;;;;;;9.65;3.70;;;;;;;;;;4997840;28;20045;-75
2023/05/02 07:02:58;;;;;;;5.95;3.58;;;;;;;;;;4996406;28;20443;-75
2023/05/02 07:05:24;;;;;;;8.80;3.95;;;;;;;;;;4992339;28;20053;-75
2023/05/02 07:07:50;;;;;;;9.65;4.40;;;;;;;;;;4994360;28;20116;-75
2023/05/02 07:10:16;;;;;;;6.82;3.85;;;;;;;;;;4993992;28;20022;-75
2023/05/02 07:12:42;;;;;;;8.77;3.72;;;;;;;;;;4993561;28;20081;-75
2023/05/02 07:15:09;;;;;;;6.57;3.55;;;;;;;;;;4996159;28;20026;-75
2023/05/02 07:17:35;;;;;;;10.63;5.25;;;;;;;;;;4991669;28;20022;-74
2023/05/02 07:20:02;;;;;;;9.73;4.95;;;;;;;;;;4995330;28;20641;-75
2023/05/02 07:22:28;;;;;;;10.77;5.07;;;;;;;;;;4995846;28;20037;-75
2023/05/02 07:25:01;;;;;;;12.55;5.05;;;;;;;;;;4996458;28;20931;-74
2023/05/02 07:27:28;;;;;;;10.07;4.47;;;;;;;;;;4997375;28;20025;-75
2023/05/02 07:29:54;;;;;;;6.05;3.10;;;;;;;;;;5001770;28;20079;-75
2023/05/02 07:32:21;;;;;;;8.52;3.50;;;;;;;;;;4990577;28;20407;-75
2023/05/02 07:34:47;;;;;;;5.57;3.00;;;;;;;;;;4998644;28;20798;-75
2023/05/02 07:37:13;;;;;;;6.03;2.90;;;;;;;;;;4992971;28;20125;-75
2023/05/02 07:39:40;;;;;;;4.32;2.90;;;;;;;;;;4996102;28;20438;-75
2023/05/02 07:42:06;;;;;;;9.85;2.92;;;;;;;;;;4994684;28;20486;-75
2023/05/02 07:44:33;;;;;;;7.43;3.45;;;;;;;;;;5001366;28;20149;-75
2023/05/02 07:47:00;;;;;;;4.10;3.25;;;;;;;;;;4998564;28;20053;-75
2023/05/02 07:49:26;;;;;;;6.50;3.20;;;;;;;;;;5002192;28;20032;-75
2023/05/02 07:51:52;;;;;;;6.45;3.53;;;;;;;;;;4981545;28;20117;-75
2023/05/02 07:54:19;;;;;;;8.73;3.58;;;;;;;;;;5001085;28;20481;-76
2023/05/02 07:56:46;;;;;;;9.43;4.30;;;;;;;;;;4999684;28;20138;-75
2023/05/02 07:59:12;;;;;;;6.30;3.50;;;;;;;;;;5001387;28;20035;-75
2023/05/02 08:01:40;;;;;;;9.93;4.70;;;;;;;;;;4998618;28;20105;-74
2023/05/02 08:04:06;;;;;;;6.93;3.67;;;;;;;;;;5004540;28;20570;-75
2023/05/02 08:06:32;;;;;;;7.43;3.70;;;;;;;;;;5002714;28;20197;-74
2023/05/02 08:08:59;;;;;;;13.93;5.28;;;;;;;;;;5005729;28;20033;-75
2023/05/02 08:11:25;;;;;;;8.90;3.70;;;;;;;;;;5000012;28;20037;-75
2023/05/02 08:13:52;;;;;;;9.35;3.28;;;;;;;;;;5001965;28;20482;-75
2023/05/02 08:16:18;;;;;;;4.32;2.67;;;;;;;;;;5002107;28;20160;-75
2023/05/02 08:18:45;;;;;;;4.68;2.80;;;;;;;;;;4980651;28;20037;-75
2023/05/02 08:21:11;;;;;;;6.30;3.50;;;;;;;;;;5000600;28;20056;-76
2023/05/02 08:23:37;;;;;;;7.10;3.78;;;;;;;;;;5000127;28;20638;-75
2023/05/02 08:26:04;;;;;;;5.47;3.38;;;;;;;;;;5004572;28;20033;-75
2023/05/02 08:28:30;;;;;;;6.65;3.72;;;;;;;;;;5006203;28;20014;-75
2023/05/02 08:30:56;;;;;;;6.57;3.70;;;;;;;;;;4997912;28;20478;-74
2023/05/02 08:33:23;;;;;;;7.43;3.70;;;;;;;;;;5004375;28;20022;-77
2023/05/02 08:35:49;;;;;;;9.40;4.22;;;;;;;;;;4999247;28;20049;-75
2023/05/02 08:38:15;;;;;;;10.57;5.53;;;;;;;;;;5001495;28;20028;-75
2023/05/02 08:40:41;;;;;;;12.82;5.20;;;;;;;;;;4998076;28;20072;-75
2023/05/02 08:43:07;;;;;;;9.15;4.93;;;;;;;;;;5003645;28;20053;-76
2023/05/02 08:45:41;;;;;;;10.10;5.10;;;;;;;;;;4998088;28;20037;-75
2023/05/02 08:48:12;;;;;;;13.68;6.05;;;;;;;;;;4995784;28;20026;-74
2023/05/02 08:50:40;;;;;;;13.23;5.97;;;;;;;;;;4996949;28;20030;-75
2023/05/02 08:53:07;;;;;;;13.15;5.32;;;;;;;;;;5003081;28;20039;-75
2023/05/02 08:55:34;;;;;;;15.20;5.80;;;;;;;;;;4997139;28;20014;-75
2023/05/02 08:58:00;;;;;;;12.48;7.28;;;;;;;;;;5003114;28;20028;-75
2023/05/02 09:00:27;;;;;;;11.18;6.45;;;;;;;;;;4997211;28;20042;-75
2023/05/02 09:03:09;;;;;;;10.80;5.78;;;;;;;;;;5003018;28;20061;-75
2023/05/02 09:05:39;;;;;;;9.25;4.45;;;;;;;;;;4999845;28;20022;-74
2023/05/02 09:08:06;;;;;;;11.48;5.47;;;;;;;;;;4998800;28;20029;-74
2023/05/02 09:10:35;;;;;;;18.90;5.57;;;;;;;;;;5004182;28;20115;-75
2023/05/02 09:13:20;;;;;;;14.30;6.25;;;;;;;;;;4996776;28;20022;-75
2023/05/02 09:15:57;;;;;;;10.82;6.00;;;;;;;;;;5001480;28;20105;-76
2023/05/02 09:18:24;;;;;;;20.30;6.65;;;;;;;;;;5002997;28;20029;-74
2023/05/02 09:20:50;;;;;;;20.45;6.40;;;;;;;;;;4993758;28;20122;-75
2023/05/02 09:23:17;;;;;;;12.88;6.22;;;;;;;;;;5002640;28;20097;-75
2023/05/02 09:25:43;;;;;;;12.75;7.07;;;;;;;;;;5001308;28;20057;-75
2023/05/02 09:28:09;;;;;;;12.05;6.88;;;;;;;;;;5000545;28;20022;-75
2023/05/02 09:30:35;;;;;;;14.57;7.45;;;;;;;;;;5000095;28;20034;-75
2023/05/02 09:33:02;;;;;;;14.90;6.85;;;;;;;;;;5004509;28;20037;-74
2023/05/02 09:35:28;;;;;;;16.10;6.47;;;;;;;;;;4995644;28;20249;-75
2023/05/02 09:37:55;;;;;;;10.75;5.43;;;;;;;;;;4999660;28;20133;-74
2023/05/02 09:40:23;;;;;;;16.05;4.70;;;;;;;;;;5001755;28;20503;-75
2023/05/02 09:42:49;;;;;;;11.52;5.05;;;;;;;;;;5001797;28;20416;-75
2023/05/02 09:45:22;;;;;;;10.00;4.30;;;;;;;;;;5000016;28;20034;-75
2023/05/02 09:47:49;;;;;;;10.65;4.93;;;;;;;;;;4981766;28;20096;-74
2023/05/02 09:50:34;;;;;;;11.93;4.88;;;;;;;;;;4993360;28;20041;-75
2023/05/02 09:53:01;;;;;;;13.07;4.47;;;;;;;;;;5002396;28;20034;-74
2023/05/02 09:55:27;;;;;;;12.90;4.93;;;;;;;;;;4992387;28;20434;-75
2023/05/02 09:57:54;;;;;;;10.18;4.70;;;;;;;;;;5003084;28;20109;-75
2023/05/02 10:00:20;;;;;;;12.38;4.68;;;;;;;;;;4996124;28;20504;-74
2023/05/02 10:02:50;;;;;;;14.73;5.20;;;;;;;;;;5002382;28;20029;-75
2023/05/02 10:05:16;;;;;;;11.18;4.05;;;;;;;;;;4995083;28;20022;-75
2023/05/02 10:07:46;;;;;;;14.80;5.32;;;;;;;;;;5001883;28;20033;-75
2023/05/02 10:10:14;;;;;;;8.35;4.03;;;;;;;;;;4998677;28;20105;-75
2023/05/02 10:12:41;;;;;;;13.15;4.93;;;;;;;;;;5004047;28;20510;-75
2023/05/02 10:15:09;;;;;;;11.00;4.55;;;;;;;;;;5001328;28;20716;-75
2023/05/02 10:17:47;;;;;;;14.48;5.03;;;;;;;;;;5006951;28;20103;-75
2023/05/02 10:20:17;;;;;;;7.57;4.20;;;;;;;;;;5000425;28;20022;-75
2023/05/02 10:22:44;;;;;;;13.07;4.78;;;;;;;;;;5005474;28;20387;-75
2023/05/02 10:25:10;;;;;;;8.93;4.20;;;;;;;;;;5000738;28;20037;-75
2023/05/02 10:27:37;;;;;;;18.27;4.22;;;;;;;;;;5004218;28;20022;-75
2023/05/02 10:30:05;;;;;;;10.23;4.38;;;;;;;;;;4998243;28;20026;-75
2023/05/02 10:32:36;;;;;;;10.43;4.30;;;;;;;;;;5004451;28;20034;-75
2023/05/02 10:35:03;;;;;;;11.10;4.43;;;;;;;;;;4998092;28;20022;-74
2023/05/02 10:37:29;;;;;;;15.18;4.43;;;;;;;;;;5003261;28;20030;-75
2023/05/02 10:39:56;;;;;;;12.95;4.78;;;;;;;;;;4996819;28;20026;-76
2023/05/02 10:42:22;;;;;;;15.55;5.50;;;;;;;;;;5001443;28;20550;-76
2023/05/02 10:44:49;;;;;;;10.40;4.75;;;;;;;;;;4998135;28;20027;-74
2023/05/02 10:47:22;;;;;;;11.07;4.95;;;;;;;;;;5002598;28;20113;-75
2023/05/02 10:49:57;;;;;;;9.95;4.28;;;;;;;;;;5001289;28;20033;-75
2023/05/02 10:52:27;;;;;;;10.82;4.60;;;;;;;;;;5003189;28;20026;-75
2023/05/02 10:55:14;;;;;;;18.05;4.75;;;;;;;;;;4997987;28;20049;-75
2023/05/02 10:57:58;;;;;;;16.35;5.47;;;;;;;;;;4985504;28;20475;-75
2023/05/02 11:00:25;;;;;;;15.45;5.10;;;;;;;;;;4997208;28;20206;-75
2023/05/02 11:02:52;;;;;;;10.55;4.18;;;;;;;;;;5003735;28;20105;-75
2023/05/02 11:05:18;;;;;;;12.55;4.57;;;;;;;;;;4999894;28;20044;-75
2023/05/02 11:07:45;;;;;;;16.23;4.80;;;;;;;;;;5007025;28;20092;-75
2023/05/02 11:10:17;;;;;;;15.15;4.68;;;;;;;;;;5002915;28;20084;-75
2023/05/02 11:12:47;;;;;;;14.57;4.50;;;;;;;;;;5001311;28;20153;-75
2023/05/02 11:15:34;;;;;;;10.40;4.32;;;;;;;;;;4998933;28;20030;-74
2023/05/02 11:18:06;;;;;;;14.63;4.70;;;;;;;;;;4994248;28;20038;-75
2023/05/02 11:20:32;;;;;;;11.40;4.53;;;;;;;;;;5008388;28;20062;-75
2023/05/02 11:23:24;;;;;;;15.05;5.22;;;;;;;;;;5003403;28;20026;-74
2023/05/02 11:25:59;;;;;;;12.50;4.80;;;;;;;;;;4995187;28;20610;-75
2023/05/02 11:28:38;;;;;;;13.50;5.00;;;;;;;;;;5007655;28;20040;-76
2023/05/02 11:31:04;;;;;;;8.27;4.20;;;;;;;;;;5000336;28;20397;-75
2023/05/02 11:33:31;;;;;;;15.10;4.68;;;;;;;;;;5009205;28;20436;-76
2023/05/02 11:35:57;;;;;;;11.18;4.80;;;;;;;;;;5001934;28;20022;-76
2023/05/02 11:38:24;;;;;;;14.65;4.07;;;;;;;;;;5007406;28;20018;-75
2023/05/02 11:40:57;;;;;;;11.15;4.13;;;;;;;;;;5003681;28;20033;-76
2023/05/02 11:43:25;;;;;;;13.57;4.90;;;;;;;;;;5006911;28;20025;-75
2023/05/02 11:45:51;;;;;;;9.90;4.95;;;;;;;;;;5002990;28;20201;-75
2023/05/02 11:48:19;;;;;;;13.38;4.68;;;;;;;;;;5001267;28;20026;-75
2023/05/02 11:50:49;;;;;;;14.82;4.93;;;;;;;;;;5004269;28;20138;-75
2023/05/02 11:53:17;;;;;;;7.45;5.03;;;;;;;;;;5005843;28;20092;-75
2023/05/02 11:55:47;;;;;;;13.90;4.65;;;;;;;;;;5001314;28;20105;-76
2023/05/02 11:58:14;;;;;;;8.27;3.85;;;;;;;;;;5005923;28;20037;-74
2023/05/02 12:00:41;;;;;;;13.77;5.32;;;;;;;;;;5007124;28;20153;-76
2023/05/02 12:03:07;;;;;;;10.57;4.40;;;;;;;;;;5005508;28;20046;-75
2023/05/02 12:05:33;;;;;;;11.45;4.22;;;;;;;;;;5001799;28;20157;-75
2023/05/02 12:08:01;;;;;;;12.38;5.00;;;;;;;;;;5005011;28;20117;-76
2023/05/02 12:10:37;;;;;;;9.88;4.70;;;;;;;;;;5001842;28;20475;-75
2023/05/02 12:13:04;;;;;;;13.68;4.75;;;;;;;;;;5005238;28;20030;-75
2023/05/02 12:15:31;;;;;;;10.13;4.35;;;;;;;;;;5001868;28;20025;-75
2023/05/02 12:17:57;;;;;;;11.43;4.43;;;;;;;;;;5006544;28;20125;-75
2023/05/02 12:20:23;;;;;;;14.40;4.68;;;;;;;;;;4998673;28;20383;-75
2023/05/02 12:22:49;;;;;;;12.80;5.15;;;;;;;;;;5005213;28;20029;-75
2023/05/02 12:25:16;;;;;;;12.55;4.90;;;;;;;;;;5001330;28;20139;-75
2023/05/02 12:27:42;;;;;;;14.65;4.72;;;;;;;;;;4999553;28;20538;-75
2023/05/02 12:30:08;;;;;;;6.70;2.67;;;;;;;;;;5002717;28;20105;-75
2023/05/02 12:32:35;;;;;;;8.00;2.50;;;;;;;;;;5002091;28;20113;-75
2023/05/02 12:35:02;;;;;;;7.05;2.55;;;;;;;;;;5004706;28;20179;-75
2023/05/02 12:37:29;;;;;;;6.30;2.28;;;;;;;;;;5003293;28;20030;-76
2023/05/02 12:39:56;;;;;;;7.28;2.38;;;;;;;;;;5003794;28;20113;-76
2023/05/02 12:42:23;;;;;;;7.45;2.90;;;;;;;;;;4999475;28;20025;-75
2023/05/02 12:44:53;;;;;;;6.32;2.28;;;;;;;;;;4994851;28;20022;-75
2023/05/02 12:47:23;;;;;;;5.00;2.40;;;;;;;;;;5008004;28;20382;-75
2023/05/02 12:49:50;;;;;;;5.80;2.50;;;;;;;;;;5003480;28;20038;-76
2023/05/02 12:52:34;;;;;;;6.45;2.70;;;;;;;;;;4996860;28;20685;-73
2023/05/02 12:55:19;;;;;;;7.50;3.20;;;;;;;;;;4997905;28;20109;-74
2023/05/02 12:57:46;;;;;;;9.07;2.55;;;;;;;;;;5007863;28;20057;-79
2023/05/02 13:00:16;;;;;;;5.35;2.42;;;;;;;;;;5002698;28;20041;-76
2023/05/02 13:02:42;;;;;;;6.80;2.72;;;;;;;;;;5000544;28;20057;-73
2023/05/02 13:05:15;;;;;;;5.25;2.08;;;;;;;;;;5000342;28;20034;-71
2023/05/02 13:07:41;;;;;;;5.47;2.25;;;;;;;;;;5001422;28;20025;-72
2023/05/02 13:10:08;;;;;;;7.78;2.20;;;;;;;;;;5004282;28;20545;-71
2023/05/02 13:12:36;;;;;;;5.43;2.20;;;;;;;;;;5007968;28;20493;-72
2023/05/02 13:15:03;;;;;;;6.70;2.10;;;;;;;;;;5001272;28;20023;-77
2023/05/02 13:17:30;;;;;;;5.85;2.60;;;;;;;;;;4979437;28;20125;-72
2023/05/02 13:19:56;;;;;;;5.35;2.78;;;;;;;;;;4996167;28;20502;-72
2023/05/02 13:22:23;;;;;;;4.28;2.55;;;;;;;;;;5002598;28;20033;-73
2023/05/02 13:24:49;;;;;;;6.90;2.38;;;;;;;;;;5001109;28;20029;-73
2023/05/02 13:27:17;;;;;;;3.28;2.15;;;;;;;;;;4995408;28;20574;-73
2023/05/02 13:29:43;;;;;;;8.20;2.30;;;;;;;;;;4998319;28;20035;-72
2023/05/02 13:32:10;;;;;;;5.43;2.00;;;;;;;;;;5003829;28;20056;-72
2023/05/02 13:34:40;;;;;;;5.50;2.17;;;;;;;;;;4993904;28;20038;-74
2023/05/02 13:37:09;;;;;;;5.95;2.30;;;;;;;;;;4979257;28;20406;-73
2023/05/02 13:39:35;;;;;;;4.93;2.30;;;;;;;;;;4997501;28;20072;-73
2023/05/02 13:42:05;;;;;;;7.47;2.70;;;;;;;;;;4995260;28;20033;-72
2023/05/02 13:44:31;;;;;;;5.50;2.60;;;;;;;;;;5001508;28;20022;-72
2023/05/02 13:46:58;;;;;;;5.35;2.40;;;;;;;;;;5000247;28;20029;-73
2023/05/02 13:49:24;;;;;;;4.70;2.75;;;;;;;;;;5000290;28;20714;-73
2023/05/02 13:51:50;;;;;;;4.82;2.67;;;;;;;;;;5000107;28;20075;-73
2023/05/02 13:54:16;;;;;;;6.63;2.65;;;;;;;;;;5000730;28;20061;-73
2023/05/02 13:56:43;;;;;;;12.15;3.38;;;;;;;;;;4994237;28;20802;-72
2023/05/02 13:59:09;;;;;;;10.43;2.78;;;;;;;;;;5000891;28;20172;-72
2023/05/02 14:01:35;;;;;;;5.43;2.75;;;;;;;;;;4976922;28;20466;-72
2023/05/02 14:04:07;;;;;;;7.10;2.92;;;;;;;;;;4983543;28;20532;-73
2023/05/02 14:06:34;;;;;;;5.40;3.08;;;;;;;;;;4990592;28;20139;-74
2023/05/02 14:09:00;;;;;;;6.90;2.58;;;;;;;;;;4992166;28;20022;-73
2023/05/02 14:11:27;;;;;;;9.10;2.95;;;;;;;;;;4991951;28;20124;-73
2023/05/02 14:13:56;;;;;;;5.90;2.78;;;;;;;;;;4996784;28;20716;-73
2023/05/02 14:16:22;;;;;;;7.93;3.70;;;;;;;;;;4992383;28;20026;-73
2023/05/02 14:18:51;;;;;;;5.75;2.85;;;;;;;;;;4995700;28;20113;-73
2023/05/02 14:21:18;;;;;;;4.90;2.97;;;;;;;;;;4993924;28;20026;-72
2023/05/02 14:23:44;;;;;;;6.25;3.08;;;;;;;;;;5002897;28;20022;-72
2023/05/02 14:26:11;;;;;;;5.72;2.78;;;;;;;;;;4991265;28;20391;-73
2023/05/02 14:28:38;;;;;;;7.40;2.97;;;;;;;;;;5000128;28;20466;-73
2023/05/02 14:31:04;;;;;;;5.25;3.03;;;;;;;;;;4993758;28;20064;-73
2023/05/02 14:33:30;;;;;;;6.72;3.67;;;;;;;;;;5006216;28;20530;-73
2023/05/02 14:35:56;;;;;;;5.25;3.17;;;;;;;;;;4998164;28;20034;-73
2023/05/02 14:38:23;;;;;;;5.85;3.00;;;;;;;;;;5004965;28;20060;-73
2023/05/02 14:40:49;;;;;;;10.93;3.20;;;;;;;;;;4996898;28;20219;-73
2023/05/02 14:43:15;;;;;;;5.20;3.10;;;;;;;;;;4997290;28;20066;-72
2023/05/02 14:45:41;;;;;;;8.45;3.45;;;;;;;;;;4991240;28;20030;-73